PWSweather.com
Personal Weather Stations
Station Observations
MOUVAUX
MouvauxFR 59420

MouvauxFR 59420

Lat: 50.7045115, Lon: 3.1358716

Elevation: 184

Station Type: Netatmo

https://weather.station.software

Latest ConditionsUpdated 10:05:57 PM GMT+01:01 Tuesday, Nov 19, 2019
Currently Today's Max Today's Min Today's Average
Temperature 31.3°F-0.4°C 40.8°F4.9°C 31.3°F-0.4°C 35.7°F2.1°C
Dew Point 30.0°F-1.1°C 39.7°F4.3°C 30.0°F-1.1°C 34.4°F1.3°C
Winds - N N - - - - -
Wind Gusts -- -- - -
Humidity 95% 96% 95% 95%
Pressure 30.00 in1015.9 mb 30.01 in1016.3 mb 29.90 in1012.5 mb -
Precipitation - 0.03 in0.8 mm - -
Hour Temp Dew Point Humidity Winds Wind Gusts Pressure Precip Precip Rate Daily Precip Total
10:05 PM 31.3°F-0.4°C 30.0°F-1.1°C 95% - N N -- 30.00 in1015.9 mb 0.00 in0.0 mm 0.00 in0.0 mm 0.03 in0.8 mm
09:55 PM 31.3°F-0.4°C 30.0°F-1.1°C 95% - N N -- 30.00 in1015.9 mb 0.00 in0.0 mm 0.00 in0.0 mm 0.03 in0.8 mm
09:45 PM 31.3°F-0.4°C 30.0°F-1.1°C 95% - N N -- 30.00 in1015.9 mb 0.00 in0.0 mm 0.00 in0.0 mm 0.03 in0.8 mm
09:36 PM 31.3°F-0.4°C 30.0°F-1.1°C 95% - N N -- 30.00 in1015.9 mb 0.00 in0.0 mm 0.00 in0.0 mm 0.03 in0.8 mm
09:25 PM 31.3°F-0.4°C 30.0°F-1.1°C 95% - N N -- 30.00 in1015.9 mb 0.00 in0.0 mm 0.00 in0.0 mm 0.03 in0.8 mm
09:15 PM 31.5°F-0.3°C 30.2°F-1.0°C 95% - N N -- 30.01 in1016.3 mb 0.00 in0.0 mm 0.00 in0.0 mm 0.03 in0.8 mm
09:06 PM 31.5°F-0.3°C 30.2°F-1.0°C 95% - N N -- 30.00 in1015.9 mb 0.00 in0.0 mm 0.00 in0.0 mm 0.03 in0.8 mm
08:55 PM 31.6°F-0.2°C 30.4°F-0.9°C 95% - N N -- 30.00 in1015.9 mb 0.00 in0.0 mm 0.00 in0.0 mm 0.03 in0.8 mm
08:45 PM 31.6°F-0.2°C 30.4°F-0.9°C 95% - N N -- 30.01 in1016.3 mb 0.00 in0.0 mm 0.00 in0.0 mm 0.03 in0.8 mm
08:35 PM 31.6°F-0.2°C 30.4°F-0.9°C 95% - N N -- 30.00 in1015.9 mb 0.00 in0.0 mm 0.00 in0.0 mm 0.03 in0.8 mm
08:25 PM 31.6°F-0.2°C 30.4°F-0.9°C 95% - N N -- 30.00 in1015.9 mb 0.00 in0.0 mm 0.00 in0.0 mm 0.03 in0.8 mm
08:15 PM 31.8°F-0.1°C 30.6°F-0.8°C 95% - N N -- 30.01 in1016.3 mb 0.00 in0.0 mm 0.00 in0.0 mm 0.03 in0.8 mm
08:05 PM 31.8°F-0.1°C 30.6°F-0.8°C 95% - N N -- 30.00 in1015.9 mb 0.00 in0.0 mm 0.00 in0.0 mm 0.03 in0.8 mm
07:55 PM 31.8°F-0.1°C 30.6°F-0.8°C 95% - N N -- 30.00 in1015.9 mb 0.00 in0.0 mm 0.00 in0.0 mm 0.03 in0.8 mm
07:45 PM 31.8°F-0.1°C 30.6°F-0.8°C 95% - N N -- 30.00 in1015.9 mb 0.00 in0.0 mm 0.00 in0.0 mm 0.03 in0.8 mm
07:35 PM 31.8°F-0.1°C 30.6°F-0.8°C 95% - N N -- 30.00 in1015.9 mb 0.00 in0.0 mm 0.00 in0.0 mm 0.03 in0.8 mm
07:25 PM 31.6°F-0.2°C 30.4°F-0.9°C 95% - N N -- 29.99 in1015.6 mb 0.00 in0.0 mm 0.00 in0.0 mm 0.03 in0.8 mm
07:15 PM 31.6°F-0.2°C 30.4°F-0.9°C 95% - N N -- 30.00 in1015.9 mb 0.00 in0.0 mm 0.00 in0.0 mm 0.03 in0.8 mm
07:05 PM 31.8°F-0.1°C 30.6°F-0.8°C 95% - N N -- 30.00 in1015.9 mb 0.00 in0.0 mm 0.00 in0.0 mm 0.03 in0.8 mm
06:55 PM 31.8°F-0.1°C 30.6°F-0.8°C 95% - N N -- 30.00 in1015.9 mb 0.00 in0.0 mm 0.00 in0.0 mm 0.03 in0.8 mm
06:45 PM 32.0°F0.0°C 30.7°F-0.7°C 95% - N N -- 30.00 in1015.9 mb 0.00 in0.0 mm 0.00 in0.0 mm 0.03 in0.8 mm
06:35 PM 32.0°F0.0°C 30.7°F-0.7°C 95% - N N -- 30.00 in1015.9 mb 0.00 in0.0 mm 0.00 in0.0 mm 0.03 in0.8 mm
06:25 PM 32.4°F0.2°C 31.3°F-0.4°C 95% - N N -- 29.99 in1015.6 mb 0.00 in0.0 mm 0.00 in0.0 mm 0.03 in0.8 mm
06:15 PM 32.5°F0.3°C 31.3°F-0.4°C 95% - N N -- 29.99 in1015.6 mb 0.00 in0.0 mm 0.00 in0.0 mm 0.03 in0.8 mm
06:05 PM 32.9°F0.5°C 31.6°F-0.2°C 95% - N N -- 29.99 in1015.6 mb 0.00 in0.0 mm 0.00 in0.0 mm 0.03 in0.8 mm
05:55 PM 33.3°F0.7°C 32.0°F0.0°C 95% - N N -- 29.99 in1015.6 mb 0.00 in0.0 mm 0.00 in0.0 mm 0.03 in0.8 mm
05:45 PM 33.8°F1.0°C 32.5°F0.3°C 95% - N N -- 29.99 in1015.6 mb 0.00 in0.0 mm 0.00 in0.0 mm 0.03 in0.8 mm
05:35 PM 34.2°F1.2°C 32.9°F0.5°C 95% - N N -- 29.98 in1015.2 mb 0.00 in0.0 mm 0.00 in0.0 mm 0.03 in0.8 mm
05:25 PM 34.7°F1.5°C 33.4°F0.8°C 95% - N N -- 29.99 in1015.6 mb 0.00 in0.0 mm 0.00 in0.0 mm 0.03 in0.8 mm
05:15 PM 35.1°F1.7°C 33.8°F1.0°C 95% - N N -- 29.99 in1015.6 mb 0.00 in0.0 mm 0.00 in0.0 mm 0.03 in0.8 mm
05:05 PM 35.8°F2.1°C 34.5°F1.4°C 95% - N N -- 29.98 in1015.2 mb 0.00 in0.0 mm 0.00 in0.0 mm 0.03 in0.8 mm
04:55 PM 36.1°F2.3°C 34.9°F1.6°C 95% - N N -- 29.98 in1015.2 mb 0.00 in0.0 mm 0.00 in0.0 mm 0.03 in0.8 mm
04:45 PM 36.7°F2.6°C 35.4°F1.9°C 95% - N N -- 29.98 in1015.2 mb 0.00 in0.0 mm 0.00 in0.0 mm 0.03 in0.8 mm
04:35 PM 37.0°F2.8°C 35.8°F2.1°C 95% - N N -- 29.98 in1015.2 mb 0.00 in0.0 mm 0.00 in0.0 mm 0.03 in0.8 mm
04:25 PM 37.4°F3.0°C 36.1°F2.3°C 95% - N N -- 29.98 in1015.2 mb 0.00 in0.0 mm 0.00 in0.0 mm 0.03 in0.8 mm
04:15 PM 37.8°F3.2°C 36.5°F2.5°C 95% - N N -- 29.98 in1015.2 mb 0.00 in0.0 mm 0.00 in0.0 mm 0.03 in0.8 mm
04:05 PM 37.9°F3.3°C 36.7°F2.6°C 95% - N N -- 29.99 in1015.6 mb 0.00 in0.0 mm 0.00 in0.0 mm 0.03 in0.8 mm
03:56 PM 37.9°F3.3°C 36.7°F2.6°C 95% - N N -- 29.99 in1015.6 mb 0.00 in0.0 mm 0.00 in0.0 mm 0.03 in0.8 mm
03:45 PM 38.3°F3.5°C 37.0°F2.8°C 95% - N N -- 29.98 in1015.2 mb 0.00 in0.0 mm 0.00 in0.0 mm 0.03 in0.8 mm
03:35 PM 38.5°F3.6°C 37.2°F2.9°C 95% - N N -- 29.98 in1015.2 mb 0.00 in0.0 mm 0.00 in0.0 mm 0.03 in0.8 mm
03:25 PM 38.8°F3.8°C 37.6°F3.1°C 95% - N N -- 29.98 in1015.2 mb 0.00 in0.0 mm 0.00 in0.0 mm 0.03 in0.8 mm
03:15 PM 39.0°F3.9°C 37.8°F3.2°C 95% - N N -- 29.99 in1015.6 mb 0.00 in0.0 mm 0.00 in0.0 mm 0.03 in0.8 mm
03:05 PM 39.4°F4.1°C 38.1°F3.4°C 95% - N N -- 29.99 in1015.6 mb 0.00 in0.0 mm 0.00 in0.0 mm 0.03 in0.8 mm
02:55 PM 39.7°F4.3°C 38.5°F3.6°C 95% - N N -- 29.99 in1015.6 mb 0.00 in0.0 mm 0.00 in0.0 mm 0.03 in0.8 mm
02:45 PM 40.1°F4.5°C 38.8°F3.8°C 95% - N N -- 29.99 in1015.6 mb 0.00 in0.0 mm 0.00 in0.0 mm 0.03 in0.8 mm
02:35 PM 40.3°F4.6°C 39.0°F3.9°C 95% - N N -- 29.99 in1015.6 mb 0.00 in0.0 mm 0.00 in0.0 mm 0.03 in0.8 mm
02:25 PM 40.3°F4.6°C 39.0°F3.9°C 95% - N N -- 29.99 in1015.6 mb 0.00 in0.0 mm 0.00 in0.0 mm 0.03 in0.8 mm
02:15 PM 40.3°F4.6°C 39.0°F3.9°C 95% - N N -- 29.99 in1015.6 mb 0.00 in0.0 mm 0.00 in0.0 mm 0.03 in0.8 mm
02:05 PM 40.6°F4.8°C 39.4°F4.1°C 95% - N N -- 29.99 in1015.6 mb 0.00 in0.0 mm 0.00 in0.0 mm 0.03 in0.8 mm
01:55 PM 40.8°F4.9°C 39.6°F4.2°C 95% - N N -- 29.99 in1015.6 mb 0.00 in0.0 mm 0.00 in0.0 mm 0.03 in0.8 mm
01:45 PM 40.8°F4.9°C 39.6°F4.2°C 95% - N N -- 29.99 in1015.6 mb 0.00 in0.0 mm 0.00 in0.0 mm 0.03 in0.8 mm
01:35 PM 40.8°F4.9°C 39.6°F4.2°C 95% - N N -- 29.98 in1015.2 mb 0.00 in0.0 mm 0.00 in0.0 mm 0.03 in0.8 mm
01:25 PM 40.8°F4.9°C 39.6°F4.2°C 95% - N N -- 29.99 in1015.6 mb 0.00 in0.0 mm 0.00 in0.0 mm 0.03 in0.8 mm
01:16 PM 40.8°F4.9°C 39.7°F4.3°C 96% - N N -- 29.98 in1015.2 mb 0.00 in0.0 mm 0.00 in0.0 mm 0.03 in0.8 mm
01:05 PM 40.6°F4.8°C 39.6°F4.2°C 96% - N N -- 29.99 in1015.6 mb 0.00 in0.0 mm 0.00 in0.0 mm 0.03 in0.8 mm
12:55 PM 40.6°F4.8°C 39.6°F4.2°C 96% - N N -- 29.99 in1015.6 mb 0.00 in0.0 mm 0.00 in0.0 mm 0.03 in0.8 mm
12:45 PM 40.5°F4.7°C 39.4°F4.1°C 96% - N N -- 29.99 in1015.6 mb 0.00 in0.0 mm 0.00 in0.0 mm 0.03 in0.8 mm
12:35 PM 40.3°F4.6°C 39.2°F4.0°C 96% - N N -- 29.99 in1015.6 mb 0.00 in0.0 mm 0.00 in0.0 mm 0.03 in0.8 mm
12:25 PM 40.3°F4.6°C 39.2°F4.0°C 96% - N N -- 29.99 in1015.6 mb 0.00 in0.0 mm 0.00 in0.0 mm 0.03 in0.8 mm
12:15 PM 39.7°F4.3°C 38.7°F3.7°C 96% - N N -- 29.99 in1015.6 mb 0.00 in0.0 mm 0.00 in0.0 mm 0.03 in0.8 mm
12:05 PM 39.7°F4.3°C 38.7°F3.7°C 96% - N N -- 29.99 in1015.6 mb 0.00 in0.0 mm 0.00 in0.0 mm 0.03 in0.8 mm
11:55 AM 39.6°F4.2°C 38.5°F3.6°C 96% - N N -- 29.99 in1015.6 mb 0.00 in0.0 mm 0.00 in0.0 mm 0.03 in0.8 mm
11:45 AM 39.0°F3.9°C 37.9°F3.3°C 96% - N N -- 29.99 in1015.6 mb 0.00 in0.0 mm 0.00 in0.0 mm 0.03 in0.8 mm
11:35 AM 38.7°F3.7°C 37.6°F3.1°C 96% - N N -- 30.00 in1015.9 mb 0.00 in0.0 mm 0.00 in0.0 mm 0.03 in0.8 mm
11:25 AM 38.7°F3.7°C 37.6°F3.1°C 96% - N N -- 30.00 in1015.9 mb 0.00 in0.0 mm 0.00 in0.0 mm 0.03 in0.8 mm
11:15 AM 38.1°F3.4°C 37.0°F2.8°C 96% - N N -- 30.00 in1015.9 mb 0.00 in0.0 mm 0.00 in0.0 mm 0.03 in0.8 mm
11:05 AM 37.6°F3.1°C 36.5°F2.5°C 96% - N N -- 29.99 in1015.6 mb 0.00 in0.0 mm 0.00 in0.0 mm 0.03 in0.8 mm
10:55 AM 36.9°F2.7°C 35.8°F2.1°C 96% - N N -- 29.99 in1015.6 mb 0.00 in0.0 mm 0.00 in0.0 mm 0.03 in0.8 mm
10:45 AM 36.1°F2.3°C 35.1°F1.7°C 96% - N N -- 29.99 in1015.6 mb 0.00 in0.0 mm 0.00 in0.0 mm 0.03 in0.8 mm
10:36 AM 35.6°F2.0°C 34.5°F1.4°C 96% - N N -- 29.99 in1015.6 mb 0.00 in0.0 mm 0.00 in0.0 mm 0.03 in0.8 mm
10:25 AM 34.9°F1.6°C 33.6°F0.9°C 95% - N N -- 29.98 in1015.2 mb 0.00 in0.0 mm 0.00 in0.0 mm 0.03 in0.8 mm
10:15 AM 34.3°F1.3°C 33.1°F0.6°C 95% - N N -- 29.99 in1015.6 mb 0.00 in0.0 mm 0.00 in0.0 mm 0.03 in0.8 mm
10:05 AM 33.6°F0.9°C 32.4°F0.2°C 95% - N N -- 29.98 in1015.2 mb 0.00 in0.0 mm 0.00 in0.0 mm 0.03 in0.8 mm
09:55 AM 33.1°F0.6°C 31.8°F-0.1°C 95% - N N -- 29.98 in1015.2 mb 0.00 in0.0 mm 0.00 in0.0 mm 0.03 in0.8 mm
09:45 AM 32.7°F0.4°C 31.5°F-0.3°C 95% - N N -- 29.98 in1015.2 mb 0.00 in0.0 mm 0.00 in0.0 mm 0.03 in0.8 mm
09:36 AM 32.4°F0.2°C 31.1°F-0.5°C 95% - N N -- 29.98 in1015.2 mb 0.00 in0.0 mm 0.00 in0.0 mm 0.03 in0.8 mm
09:25 AM 32.2°F0.1°C 30.9°F-0.6°C 95% - N N -- 29.97 in1014.9 mb 0.00 in0.0 mm 0.00 in0.0 mm 0.03 in0.8 mm
09:15 AM 32.0°F0.0°C 30.7°F-0.7°C 95% - N N -- 29.97 in1014.9 mb 0.00 in0.0 mm 0.00 in0.0 mm 0.03 in0.8 mm
09:05 AM 31.8°F-0.1°C 30.6°F-0.8°C 95% - N N -- 29.97 in1014.9 mb 0.00 in0.0 mm 0.00 in0.0 mm 0.03 in0.8 mm
08:55 AM 31.6°F-0.2°C 30.4°F-0.9°C 95% - N N -- 29.96 in1014.6 mb 0.00 in0.0 mm 0.00 in0.0 mm 0.03 in0.8 mm
08:45 AM 31.5°F-0.3°C 30.2°F-1.0°C 95% - N N -- 29.96 in1014.6 mb 0.00 in0.0 mm 0.00 in0.0 mm 0.03 in0.8 mm
08:35 AM 31.5°F-0.3°C 30.2°F-1.0°C 95% - N N -- 29.96 in1014.6 mb 0.00 in0.0 mm 0.00 in0.0 mm 0.03 in0.8 mm
08:25 AM 31.5°F-0.3°C 30.2°F-1.0°C 95% - N N -- 29.96 in1014.6 mb 0.00 in0.0 mm 0.00 in0.0 mm 0.03 in0.8 mm
08:15 AM 31.5°F-0.3°C 30.2°F-1.0°C 95% - N N -- 29.96 in1014.6 mb 0.00 in0.0 mm 0.00 in0.0 mm 0.03 in0.8 mm
08:06 AM 31.5°F-0.3°C 30.2°F-1.0°C 95% - N N -- 29.96 in1014.6 mb 0.00 in0.0 mm 0.00 in0.0 mm 0.03 in0.8 mm
07:55 AM 31.6°F-0.2°C 30.4°F-0.9°C 95% - N N -- 29.96 in1014.6 mb 0.00 in0.0 mm 0.00 in0.0 mm 0.03 in0.8 mm
07:45 AM 31.6°F-0.2°C 30.4°F-0.9°C 95% - N N -- 29.96 in1014.6 mb 0.00 in0.0 mm 0.00 in0.0 mm 0.03 in0.8 mm
07:35 AM 31.8°F-0.1°C 30.6°F-0.8°C 95% - N N -- 29.95 in1014.2 mb 0.00 in0.0 mm 0.00 in0.0 mm 0.03 in0.8 mm
07:26 AM 32.0°F0.0°C 30.7°F-0.7°C 95% - N N -- 29.95 in1014.2 mb 0.00 in0.0 mm 0.00 in0.0 mm 0.03 in0.8 mm
07:15 AM 32.4°F0.2°C 31.1°F-0.5°C 95% - N N -- 29.94 in1013.9 mb 0.00 in0.0 mm 0.00 in0.0 mm 0.03 in0.8 mm
07:05 AM 32.7°F0.4°C 31.5°F-0.3°C 95% - N N -- 29.94 in1013.9 mb 0.00 in0.0 mm 0.00 in0.0 mm 0.03 in0.8 mm
06:55 AM 32.7°F0.4°C 31.5°F-0.3°C 95% - N N -- 29.94 in1013.9 mb 0.00 in0.0 mm 0.00 in0.0 mm 0.03 in0.8 mm
06:45 AM 32.9°F0.5°C 31.6°F-0.2°C 95% - N N -- 29.93 in1013.5 mb 0.00 in0.0 mm 0.00 in0.0 mm 0.03 in0.8 mm
06:36 AM 32.9°F0.5°C 31.6°F-0.2°C 95% - N N -- 29.93 in1013.5 mb 0.00 in0.0 mm 0.00 in0.0 mm 0.03 in0.8 mm
06:25 AM 33.1°F0.6°C 31.8°F-0.1°C 95% - N N -- 29.93 in1013.5 mb 0.00 in0.0 mm 0.00 in0.0 mm 0.03 in0.8 mm
06:15 AM 33.3°F0.7°C 32.0°F0.0°C 95% - N N -- 29.94 in1013.9 mb 0.00 in0.0 mm 0.00 in0.0 mm 0.03 in0.8 mm
06:05 AM 33.6°F0.9°C 32.4°F0.2°C 95% - N N -- 29.93 in1013.5 mb 0.00 in0.0 mm 0.00 in0.0 mm 0.03 in0.8 mm
05:55 AM 33.8°F1.0°C 32.5°F0.3°C 95% - N N -- 29.93 in1013.5 mb 0.00 in0.0 mm 0.00 in0.0 mm 0.03 in0.8 mm
05:46 AM 34.2°F1.2°C 32.9°F0.5°C 95% - N N -- 29.93 in1013.5 mb 0.00 in0.0 mm 0.00 in0.0 mm 0.03 in0.8 mm
05:35 AM 34.3°F1.3°C 33.1°F0.6°C 95% - N N -- 29.93 in1013.5 mb 0.00 in0.0 mm 0.00 in0.0 mm 0.03 in0.8 mm
05:25 AM 34.7°F1.5°C 33.4°F0.8°C 95% - N N -- 29.93 in1013.5 mb 0.00 in0.0 mm 0.00 in0.0 mm 0.03 in0.8 mm
05:15 AM 35.1°F1.7°C 33.8°F1.0°C 95% - N N -- 29.93 in1013.5 mb 0.00 in0.0 mm 0.00 in0.0 mm 0.03 in0.8 mm
05:05 AM 35.2°F1.8°C 34.0°F1.1°C 95% - N N -- 29.93 in1013.5 mb 0.00 in0.0 mm 0.00 in0.0 mm 0.03 in0.8 mm
04:55 AM 35.4°F1.9°C 34.2°F1.2°C 95% - N N -- 29.93 in1013.5 mb 0.00 in0.0 mm 0.00 in0.0 mm 0.03 in0.8 mm
04:45 AM 35.6°F2.0°C 34.3°F1.3°C 95% - N N -- 29.93 in1013.5 mb 0.00 in0.0 mm 0.00 in0.0 mm 0.03 in0.8 mm
04:35 AM 35.8°F2.1°C 34.5°F1.4°C 95% - N N -- 29.94 in1013.9 mb 0.00 in0.0 mm 0.00 in0.0 mm 0.03 in0.8 mm
04:25 AM 35.8°F2.1°C 34.5°F1.4°C 95% - N N -- 29.93 in1013.5 mb 0.00 in0.0 mm 0.00 in0.0 mm 0.03 in0.8 mm
04:15 AM 36.1°F2.3°C 34.9°F1.6°C 95% - N N -- 29.93 in1013.5 mb 0.00 in0.0 mm 0.00 in0.0 mm 0.03 in0.8 mm
04:05 AM 36.3°F2.4°C 35.1°F1.7°C 95% - N N -- 29.93 in1013.5 mb 0.00 in0.0 mm 0.00 in0.0 mm 0.03 in0.8 mm
03:55 AM 36.5°F2.5°C 35.2°F1.8°C 95% - N N -- 29.93 in1013.5 mb 0.00 in0.0 mm 0.00 in0.0 mm 0.03 in0.8 mm
03:45 AM 36.9°F2.7°C 35.6°F2.0°C 95% - N N -- 29.93 in1013.5 mb 0.01 in0.3 mm 0.00 in0.0 mm 0.03 in0.8 mm
03:35 AM 37.2°F2.9°C 36.0°F2.2°C 95% - N N -- 29.93 in1013.5 mb 0.02 in0.5 mm 0.00 in0.0 mm 0.03 in0.8 mm
03:25 AM 37.6°F3.1°C 36.3°F2.4°C 95% - N N -- 29.93 in1013.5 mb 0.02 in0.5 mm 0.00 in0.0 mm 0.03 in0.8 mm
03:15 AM 37.9°F3.3°C 36.7°F2.6°C 95% - N N -- 29.93 in1013.5 mb 0.02 in0.5 mm 0.00 in0.0 mm 0.03 in0.8 mm
03:05 AM 38.1°F3.4°C 36.9°F2.7°C 95% - N N -- 29.92 in1013.2 mb 0.02 in0.5 mm 0.00 in0.0 mm 0.03 in0.8 mm
02:55 AM 38.3°F3.5°C 37.0°F2.8°C 95% - N N -- 29.93 in1013.5 mb 0.02 in0.5 mm 0.00 in0.0 mm 0.03 in0.8 mm
02:45 AM 38.3°F3.5°C 37.0°F2.8°C 95% - N N -- 29.93 in1013.5 mb 0.02 in0.5 mm 0.00 in0.0 mm 0.02 in0.5 mm
02:35 AM 38.3°F3.5°C 37.0°F2.8°C 95% - N N -- 29.92 in1013.2 mb 0.02 in0.5 mm 0.00 in0.0 mm 0.02 in0.5 mm
02:25 AM 38.5°F3.6°C 37.2°F2.9°C 95% - N N -- 29.92 in1013.2 mb 0.02 in0.5 mm 0.06 in1.5 mm 0.02 in0.5 mm
02:15 AM 38.7°F3.7°C 37.4°F3.0°C 95% - N N -- 29.92 in1013.2 mb 0.01 in0.3 mm 0.00 in0.0 mm 0.01 in0.3 mm
02:05 AM 38.8°F3.8°C 37.6°F3.1°C 95% - N N -- 29.92 in1013.2 mb 0.01 in0.3 mm 0.00 in0.0 mm 0.01 in0.3 mm
01:55 AM 38.8°F3.8°C 37.6°F3.1°C 95% - N N -- 29.92 in1013.2 mb 0.01 in0.3 mm 0.06 in1.5 mm 0.01 in0.3 mm
01:45 AM 39.0°F3.9°C 37.8°F3.2°C 95% - N N -- 29.92 in1013.2 mb 0.00 in0.0 mm 0.00 in0.0 mm 0.00 in0.0 mm
01:35 AM 39.0°F3.9°C 37.8°F3.2°C 95% - N N -- 29.92 in1013.2 mb 0.00 in0.0 mm 0.00 in0.0 mm 0.00 in0.0 mm
01:25 AM 39.0°F3.9°C 37.8°F3.2°C 95% - N N -- 29.91 in1012.9 mb 0.00 in0.0 mm 0.00 in0.0 mm 0.00 in0.0 mm
01:15 AM 39.0°F3.9°C 37.8°F3.2°C 95% - N N -- 29.92 in1013.2 mb 0.00 in0.0 mm 0.00 in0.0 mm 0.00 in0.0 mm
01:06 AM 39.0°F3.9°C 37.8°F3.2°C 95% - N N -- 29.91 in1012.9 mb 0.00 in0.0 mm 0.00 in0.0 mm 0.00 in0.0 mm
12:55 AM 39.0°F3.9°C 37.8°F3.2°C 95% - N N -- 29.91 in1012.9 mb 0.00 in0.0 mm 0.00 in0.0 mm 0.00 in0.0 mm
12:45 AM 39.0°F3.9°C 37.8°F3.2°C 95% - N N -- 29.91 in1012.9 mb 0.00 in0.0 mm 0.00 in0.0 mm 0.00 in0.0 mm
12:35 AM 39.0°F3.9°C 37.8°F3.2°C 95% - N N -- 29.91 in1012.9 mb 0.00 in0.0 mm 0.00 in0.0 mm 0.00 in0.0 mm
12:26 AM 38.8°F3.8°C 37.6°F3.1°C 95% - N N -- 29.91 in1012.9 mb 0.00 in0.0 mm 0.00 in0.0 mm 0.00 in0.0 mm
12:15 AM 38.7°F3.7°C 37.4°F3.0°C 95% - N N -- 29.91 in1012.9 mb 0.00 in0.0 mm 0.00 in0.0 mm 0.00 in0.0 mm
12:05 AM 38.7°F3.7°C 37.4°F3.0°C 95% - N N -- 29.90 in1012.5 mb 0.00 in0.0 mm 0.00 in0.0 mm 0.14 in3.6 mm